Kirchberg-Wetter.de


Hier erfahren Sie, wie das Wetter wird...


WebCam am Fuchsberg more information WebCam am Fuchsberg


Thunder radar more information blitzortung!


Rain radar more information rain snow radar


Besuchen Sie unsere anderen Wetter Stationen:

Template documentation
and downloads

And another site



Es ist keine erhöhte Aufmerksamkeit aufgrund des Wetters notwendig.    Es gibt keine Warnungen.

METAR-Meldungen aus der Umgebung

   
EHVK - Volkel Rnlafb, Netherlands
Entfernung von der Station bis: SW 18 km
Aktualisierung: 23-10-2019 17:25
leicht bewölkt  
leicht bewölkt  
   Wind: Osten 16.7 km/h
Wind: Osten 16.7 km/h
Temperatur: 16°C
Taupunkt: 12°C
Luftfeuchte: 77%
Luftdruck: 1011 hPa
Bewölkt: leicht bewölkt
Sichtbarkeit: More than 10 km
Bewölkung: leicht bewölkt 16000 ft
EHVK 231525Z AUTO 08009KT 060V120 9999 FEW160 16/12 Q1011 BLU
EDLV - Niederrhein, Germany
Entfernung von der Station bis: SO 25 km
Aktualisierung: 23-10-2019 17:20
Klar  
Klar  
   Wind: variiert 5.6 km/h
Wind: variiert 5.6 km/h
Temperatur: 17°C
Taupunkt: 13°C
Luftfeuchte: 77%
Luftdruck: 1011 hPa
Sichtbarkeit: More than 10 km
Bewölkung: Klar
EDLV 231520Z VRB03KT CAVOK 17/13 Q1011
EHDL - Deelen Rnlafb, Netherlands
Entfernung von der Station bis: N 35 km
Aktualisierung: 23-10-2019 17:25
Nebel, Bewölkt  
Nebel, Bewölkt  
   Wind: variiert 14.8 km/h
Wind: variiert 14.8 km/h
Temperatur: 15°C
Taupunkt: 12°C
Luftfeuchte: 82%
Luftdruck: 1011 hPa
Bewölkt: Bewölkt
Sichtbarkeit: 8 km
Bewölkung: Bewölkt 17000 ft
EHDL 231525Z AUTO VRB08KT 8000 HZ OVC170 15/12 Q1011 BLU
EHEH - Eindhoven Rnlafb, Netherlands
Entfernung von der Station bis: SW 48 km
Aktualisierung: 23-10-2019 17:25
Stark bewölkt  
Stark bewölkt  
   Wind: ONO 13 km/h
Wind: ONO 13 km/h
Temperatur: 16°C
Taupunkt: 12°C
Luftfeuchte: 77%
Luftdruck: 1011 hPa
Bewölkt: Stark bewölkt
Sichtbarkeit: More than 10 km
Bewölkung: Stark bewölkt 14000 ft
EHEH 231525Z AUTO 07007KT 040V140 9999 BKN140 16/12 Q1011 BLU 08006KT CAVOK
EHGR - Gilze-Rijen Rnla, Netherlands
Entfernung von der Station bis: WSW 70 km
Aktualisierung: 23-10-2019 17:31
Bewölkt  
Bewölkt  
   Wind: Osten 11.1 km/h
Wind: Osten 11.1 km/h
Temperatur: 16°C
Taupunkt: 12°C
Luftfeuchte: 77%
Luftdruck: 1010 hPa
Bewölkt: Bewölkt
Sichtbarkeit: More than 10 km
Bewölkung: Teilweise bewölkt 15000 ft,
Bewölkt 20000 ft
EHGR 231531Z AUTO 09006KT 030V120 9999 SCT150 OVC200 16/12 Q1010 BLU 09007KT CAVOK
EBBL - Kleine-Brogel(Ba, Belgium
Entfernung von der Station bis: SSW 71 km
Aktualisierung: 23-10-2019 17:25
Klar  
Klar  
   Wind: Osten 9.3 km/h
Wind: Osten 9.3 km/h
Temperatur: 15°C
Taupunkt: 12°C
Luftfeuchte: 82%
Luftdruck: 1011 hPa
Bewölkt: Klar
Sichtbarkeit: More than 10 km
Bewölkung: Klar
EBBL 231525Z AUTO 08005KT 9999 NCD 15/12 Q1011 BLU

Script entwickelt von  Saratoga-weather.org Angepasst für das Template von  Weerstation Leuven

Sie finden unser Wetter-Infos auch auf:

Weather Underground

WeatherlinkIP

Wetternetz-Sachsen

Von uns verwendete Ausrüstung:

Wetterstation
Davis Vantage Pro2 Plus

Wetterprogramm
Meteobridge

WetterComputer
TP-Link TL-MR3020

Davis Vantage Pro2 Plus

Meteobridge

TP-Link TL-MR3020